Time;durP1;ratioP1;P1;durP2;ratioP2;P2;SDS_P1;SDS_P2;PMS_P1;PMS_P2;Temp;Humidity;BMP_temperature;BMP_pressure;BME280_temperature;BME280_humidity;BME280_pressure;Samples;Min_cycle;Max_cycle;Signal;HPM_P1;HPM_P2
2022/01/03 00:01:19;;;;;;;202.13;105.18;;;;;;;;;;5034890;28;20045;-79
2022/01/03 00:04:05;;;;;;;330.92;139.68;;;;;;;;;;5034436;28;20034;-81
2022/01/03 00:06:51;;;;;;;356.63;140.13;;;;;;;;;;5034501;28;20487;-81
2022/01/03 00:09:37;;;;;;;273.55;117.82;;;;;;;;;;5034514;28;20402;-80
2022/01/03 00:12:23;;;;;;;208.13;84.95;;;;;;;;;;5034721;28;20049;-82
2022/01/03 00:15:13;;;;;;;125.28;57.03;;;;;;;;;;5034360;28;20050;-81
2022/01/03 00:18:02;;;;;;;120.35;55.65;;;;;;;;;;5034866;28;20042;-81
2022/01/03 00:20:56;;;;;;;142.93;64.72;;;;;;;;;;5029135;28;20037;-81
2022/01/03 00:23:49;;;;;;;191.90;93.15;;;;;;;;;;5032025;28;20041;-81
2022/01/03 00:26:37;;;;;;;178.38;80.82;;;;;;;;;;5031632;28;20046;-81
2022/01/03 00:29:27;;;;;;;164.73;75.32;;;;;;;;;;5024090;28;20373;-82
2022/01/03 00:32:15;;;;;;;204.50;99.00;;;;;;;;;;5033053;28;20486;-82
2022/01/03 00:35:02;;;;;;;221.65;107.05;;;;;;;;;;5018452;28;20053;-82
2022/01/03 00:37:48;;;;;;;249.63;116.38;;;;;;;;;;5033002;28;20045;-81
2022/01/03 00:40:33;;;;;;;247.93;120.65;;;;;;;;;;5033716;28;20042;-81
2022/01/03 00:43:19;;;;;;;293.73;141.73;;;;;;;;;;5034216;28;20045;-81
2022/01/03 00:46:04;;;;;;;258.35;129.27;;;;;;;;;;5034003;28;20038;-81
2022/01/03 00:48:50;;;;;;;244.02;128.82;;;;;;;;;;5028913;28;20045;-79
2022/01/03 00:51:36;;;;;;;266.75;133.43;;;;;;;;;;5051515;28;20041;-79
2022/01/03 00:54:21;;;;;;;272.27;133.38;;;;;;;;;;5034453;28;20053;-81
2022/01/03 00:57:17;;;;;;;287.15;147.52;;;;;;;;;;5050075;28;20041;-79
2022/01/03 01:00:06;;;;;;;261.38;132.23;;;;;;;;;;5041095;28;20045;-80
2022/01/03 01:03:18;;;;;;;271.60;136.15;;;;;;;;;;5025344;28;20482;-81
2022/01/03 01:06:08;;;;;;;288.92;140.40;;;;;;;;;;5025369;28;20049;-82
2022/01/03 01:08:56;;;;;;;284.40;142.95;;;;;;;;;;5025384;28;20041;-81
2022/01/03 01:11:44;;;;;;;310.52;151.15;;;;;;;;;;5033505;28;20045;-81
2022/01/03 01:14:33;;;;;;;320.70;155.80;;;;;;;;;;5025593;28;20042;-81
2022/01/03 01:17:18;;;;;;;311.63;146.63;;;;;;;;;;5011642;28;20045;-81
2022/01/03 01:20:05;;;;;;;302.35;150.82;;;;;;;;;;5026188;28;20471;-81
2022/01/03 01:22:53;;;;;;;337.85;156.13;;;;;;;;;;5025114;28;20041;-81
2022/01/03 01:28:29;;;;;;;386.55;170.88;;;;;;;;;;5025422;28;20049;-82
2022/01/03 01:31:22;;;;;;;362.70;158.98;;;;;;;;;;5025397;28;20053;-82
2022/01/03 01:34:11;;;;;;;341.13;149.65;;;;;;;;;;5033447;28;20042;-82
2022/01/03 01:37:00;;;;;;;328.63;145.80;;;;;;;;;;5035486;28;20049;-82
2022/01/03 01:39:48;;;;;;;281.42;128.52;;;;;;;;;;5029392;28;20041;-83
2022/01/03 01:42:36;;;;;;;252.57;114.95;;;;;;;;;;5037754;28;20037;-83
2022/01/03 01:45:26;;;;;;;274.05;124.70;;;;;;;;;;5036978;28;20045;-83
2022/01/03 01:48:16;;;;;;;272.70;128.45;;;;;;;;;;5037348;28;20042;-84
2022/01/03 01:51:02;;;;;;;271.95;128.02;;;;;;;;;;5014887;28;20038;-83
2022/01/03 01:53:55;;;;;;;295.38;133.90;;;;;;;;;;5028869;28;20041;-78
2022/01/03 01:57:19;;;;;;;273.42;127.35;;;;;;;;;;5015913;28;20049;-79
2022/01/03 02:00:16;;;;;;;277.58;130.13;;;;;;;;;;5032824;28;20057;-79
2022/01/03 02:04:09;;;;;;;258.60;124.90;;;;;;;;;;5042805;28;20057;-79
2022/01/03 02:06:56;;;;;;;264.55;126.38;;;;;;;;;;5005561;28;20049;-78
2022/01/03 02:09:52;;;;;;;267.70;131.15;;;;;;;;;;5042443;28;20049;-78
2022/01/03 02:12:44;;;;;;;274.60;130.00;;;;;;;;;;5042353;28;20049;-78
2022/01/03 02:15:35;;;;;;;273.08;133.13;;;;;;;;;;5042440;28;20045;-78
2022/01/03 02:18:25;;;;;;;254.35;121.85;;;;;;;;;;5042370;28;20041;-78
2022/01/03 02:21:11;;;;;;;264.27;125.05;;;;;;;;;;5042767;28;20046;-78
2022/01/03 02:23:58;;;;;;;253.35;120.53;;;;;;;;;;5036537;28;20041;-78
2022/01/03 02:26:44;;;;;;;240.90;112.68;;;;;;;;;;5041942;28;20033;-78
2022/01/03 02:29:29;;;;;;;228.63;109.38;;;;;;;;;;5037059;28;20046;-78
2022/01/03 02:32:15;;;;;;;196.30;95.03;;;;;;;;;;5041860;28;20049;-78
2022/01/03 02:35:00;;;;;;;190.60;93.25;;;;;;;;;;5036558;28;20033;-78
2022/01/03 02:37:49;;;;;;;168.40;85.22;;;;;;;;;;5042103;28;20041;-78
2022/01/03 02:40:36;;;;;;;170.75;83.22;;;;;;;;;;5041584;28;20045;-78
2022/01/03 02:43:22;;;;;;;146.50;75.20;;;;;;;;;;5036108;28;20037;-78
2022/01/03 02:46:09;;;;;;;166.48;83.22;;;;;;;;;;5041680;28;20050;-79
2022/01/03 02:48:56;;;;;;;190.60;97.93;;;;;;;;;;5035441;28;20049;-78
2022/01/03 02:51:45;;;;;;;190.13;96.00;;;;;;;;;;5041693;28;20053;-79
2022/01/03 02:54:31;;;;;;;195.65;95.70;;;;;;;;;;5041533;28;20434;-79
2022/01/03 02:57:23;;;;;;;200.95;100.22;;;;;;;;;;5041577;28;20049;-78
2022/01/03 03:00:14;;;;;;;209.85;109.03;;;;;;;;;;5036181;28;20050;-78
2022/01/03 03:02:59;;;;;;;204.90;105.55;;;;;;;;;;5036086;28;20049;-78
2022/01/03 03:05:47;;;;;;;195.55;99.53;;;;;;;;;;5041862;28;20045;-78
2022/01/03 03:08:33;;;;;;;182.40;95.38;;;;;;;;;;5041453;28;20045;-78
2022/01/03 03:11:18;;;;;;;177.98;86.97;;;;;;;;;;5059732;28;20045;-79
2022/01/03 03:14:05;;;;;;;172.38;89.13;;;;;;;;;;5047385;28;20402;-78
2022/01/03 03:16:50;;;;;;;182.27;93.22;;;;;;;;;;5034655;28;20049;-78
2022/01/03 03:20:01;;;;;;;183.68;96.43;;;;;;;;;;5041342;28;20379;-78
2022/01/03 03:22:49;;;;;;;175.40;87.40;;;;;;;;;;5041015;28;20034;-78
2022/01/03 03:25:37;;;;;;;153.63;80.63;;;;;;;;;;5041240;28;20390;-78
2022/01/03 03:28:26;;;;;;;161.40;84.38;;;;;;;;;;5040751;28;20041;-78
2022/01/03 03:31:13;;;;;;;159.15;81.55;;;;;;;;;;5041150;28;20049;-78
2022/01/03 03:34:00;;;;;;;170.48;81.47;;;;;;;;;;5040862;28;20045;-78
2022/01/03 03:36:45;;;;;;;155.43;80.30;;;;;;;;;;5040975;28;20037;-78
2022/01/03 03:39:33;;;;;;;166.75;84.20;;;;;;;;;;5040990;28;20510;-78
2022/01/03 03:42:21;;;;;;;173.95;89.28;;;;;;;;;;5040987;28;20049;-78
2022/01/03 03:45:07;;;;;;;156.32;76.22;;;;;;;;;;5040743;28;20049;-78
2022/01/03 03:47:52;;;;;;;188.95;92.80;;;;;;;;;;5041295;28;20041;-79
2022/01/03 03:50:38;;;;;;;208.73;105.47;;;;;;;;;;5045229;28;20037;-80
2022/01/03 03:53:26;;;;;;;193.32;88.97;;;;;;;;;;5046984;28;20041;-79
2022/01/03 03:56:12;;;;;;;237.52;119.78;;;;;;;;;;5044927;28;20037;-78
2022/01/03 03:58:59;;;;;;;228.93;115.93;;;;;;;;;;5041090;28;20047;-78
2022/01/03 04:01:44;;;;;;;224.30;115.07;;;;;;;;;;5027408;28;20063;-78
2022/01/03 04:04:29;;;;;;;246.15;115.22;;;;;;;;;;5027771;28;20041;-79
2022/01/03 04:07:15;;;;;;;222.60;114.53;;;;;;;;;;5027290;28;20045;-80
2022/01/03 04:10:04;;;;;;;241.63;117.45;;;;;;;;;;5034342;28;20045;-78
2022/01/03 04:12:50;;;;;;;235.68;113.80;;;;;;;;;;5026535;28;20046;-78
2022/01/03 04:15:36;;;;;;;206.00;103.68;;;;;;;;;;5026427;28;20061;-78
2022/01/03 04:18:22;;;;;;;186.00;90.55;;;;;;;;;;5025997;28;20037;-79
2022/01/03 04:21:08;;;;;;;170.35;84.68;;;;;;;;;;5026132;28;20045;-79
2022/01/03 04:23:54;;;;;;;177.52;87.18;;;;;;;;;;5025697;28;20041;-79
2022/01/03 04:26:40;;;;;;;163.80;79.15;;;;;;;;;;5034267;28;20475;-78
2022/01/03 04:29:26;;;;;;;173.45;80.60;;;;;;;;;;5026201;28;20045;-78
2022/01/03 04:32:12;;;;;;;167.88;82.57;;;;;;;;;;5025333;28;20049;-78
2022/01/03 04:34:58;;;;;;;157.70;77.93;;;;;;;;;;5011985;28;20474;-78
2022/01/03 04:37:44;;;;;;;158.38;75.40;;;;;;;;;;5025743;28;20041;-79
2022/01/03 04:40:29;;;;;;;162.20;75.22;;;;;;;;;;5025872;28;20042;-78
2022/01/03 04:43:14;;;;;;;156.38;74.35;;;;;;;;;;5033653;28;20041;-78
2022/01/03 04:46:00;;;;;;;158.15;73.32;;;;;;;;;;5025393;28;20041;-78
2022/01/03 04:48:46;;;;;;;145.38;69.63;;;;;;;;;;5025638;28;20044;-78
2022/01/03 04:51:31;;;;;;;144.25;70.93;;;;;;;;;;5033397;28;20037;-78
2022/01/03 04:54:17;;;;;;;156.07;76.93;;;;;;;;;;5033708;28;20482;-79
2022/01/03 04:57:02;;;;;;;195.55;88.43;;;;;;;;;;5025400;28;20053;-78
2022/01/03 04:59:50;;;;;;;157.93;78.50;;;;;;;;;;5027196;28;20050;-78
2022/01/03 05:02:37;;;;;;;161.77;82.85;;;;;;;;;;5039637;28;20409;-78
2022/01/03 05:05:23;;;;;;;147.73;75.50;;;;;;;;;;5039141;28;20037;-78
2022/01/03 05:08:10;;;;;;;170.00;83.57;;;;;;;;;;5039595;28;20050;-78
2022/01/03 05:11:00;;;;;;;162.43;82.88;;;;;;;;;;5039088;28;20402;-79
2022/01/03 05:13:46;;;;;;;168.07;85.95;;;;;;;;;;5039116;28;20046;-78
2022/01/03 05:16:31;;;;;;;175.00;89.68;;;;;;;;;;5039549;28;20046;-78
2022/01/03 05:19:17;;;;;;;180.73;88.40;;;;;;;;;;5039514;28;20474;-79
2022/01/03 05:22:03;;;;;;;160.93;76.15;;;;;;;;;;5033661;28;20045;-78
2022/01/03 05:24:50;;;;;;;148.35;75.35;;;;;;;;;;5032762;28;20037;-79
2022/01/03 05:27:37;;;;;;;149.25;69.82;;;;;;;;;;5046591;28;20045;-78
2022/01/03 05:30:22;;;;;;;159.43;78.93;;;;;;;;;;5053265;28;20112;-78
2022/01/03 05:33:08;;;;;;;165.85;84.63;;;;;;;;;;5039007;28;20045;-78
2022/01/03 05:35:54;;;;;;;168.98;85.88;;;;;;;;;;5039253;28;20498;-78
2022/01/03 05:38:40;;;;;;;165.27;81.70;;;;;;;;;;5033449;28;20037;-78
2022/01/03 05:41:25;;;;;;;151.60;77.80;;;;;;;;;;5038856;28;20447;-78
2022/01/03 05:44:11;;;;;;;178.43;88.15;;;;;;;;;;5033516;28;20045;-78
2022/01/03 05:46:57;;;;;;;162.43;84.47;;;;;;;;;;5039162;28;20475;-77
2022/01/03 05:49:42;;;;;;;175.55;86.93;;;;;;;;;;5038865;28;20045;-77
2022/01/03 05:52:29;;;;;;;118.13;52.42;;;;;;;;;;5033071;28;20034;-78
2022/01/03 05:55:13;;;;;;;153.10;75.40;;;;;;;;;;5033334;28;20049;-77
2022/01/03 05:58:00;;;;;;;161.18;79.40;;;;;;;;;;5039136;28;20045;-78
2022/01/03 06:00:49;;;;;;;145.25;69.30;;;;;;;;;;5038863;28;20047;-79
2022/01/03 06:03:38;;;;;;;130.38;58.20;;;;;;;;;;5031990;28;20050;-78
2022/01/03 06:06:53;;;;;;;127.53;60.95;;;;;;;;;;5033264;28;20049;-78
2022/01/03 06:09:36;;;;;;;132.75;57.00;;;;;;;;;;5038848;28;20397;-78
2022/01/03 06:12:22;;;;;;;96.80;43.90;;;;;;;;;;5039001;28;20462;-78
2022/01/03 06:15:11;;;;;;;116.50;57.17;;;;;;;;;;5038393;28;20037;-78
2022/01/03 06:17:56;;;;;;;106.70;52.67;;;;;;;;;;5033182;28;20038;-77
2022/01/03 06:20:45;;;;;;;100.05;48.00;;;;;;;;;;5038840;28;20045;-77
2022/01/03 06:23:30;;;;;;;112.63;52.33;;;;;;;;;;5034249;28;20053;-77
2022/01/03 06:26:16;;;;;;;117.72;55.03;;;;;;;;;;5042073;28;20046;-78
2022/01/03 06:29:05;;;;;;;122.70;57.17;;;;;;;;;;5042107;28;20483;-78
2022/01/03 06:31:52;;;;;;;114.45;57.63;;;;;;;;;;5028727;28;20049;-79
2022/01/03 06:34:40;;;;;;;109.70;50.50;;;;;;;;;;5042550;28;20046;-79
2022/01/03 06:37:25;;;;;;;116.60;54.72;;;;;;;;;;5045923;28;20053;-78
2022/01/03 06:40:23;;;;;;;110.05;56.33;;;;;;;;;;5045413;28;20038;-79
2022/01/03 06:43:08;;;;;;;90.20;44.53;;;;;;;;;;5046154;28;20049;-79
2022/01/03 06:45:54;;;;;;;93.70;48.50;;;;;;;;;;5042773;28;20041;-79
2022/01/03 06:48:39;;;;;;;94.05;47.22;;;;;;;;;;5041809;28;20034;-79
2022/01/03 06:51:25;;;;;;;114.32;58.03;;;;;;;;;;5041396;28;20045;-78
2022/01/03 06:54:11;;;;;;;117.28;55.95;;;;;;;;;;5041813;28;20398;-77
2022/01/03 06:57:01;;;;;;;141.95;69.20;;;;;;;;;;5041543;28;20084;-78
2022/01/03 06:59:48;;;;;;;189.32;75.93;;;;;;;;;;5023470;28;20050;-79
2022/01/03 07:02:33;;;;;;;170.57;77.53;;;;;;;;;;5041328;28;20045;-78
2022/01/03 07:05:19;;;;;;;155.85;73.43;;;;;;;;;;5035318;28;20041;-79
2022/01/03 07:08:05;;;;;;;132.73;66.03;;;;;;;;;;5035553;28;20041;-79
2022/01/03 07:10:50;;;;;;;217.30;93.40;;;;;;;;;;5035595;28;20398;-79
2022/01/03 07:13:44;;;;;;;168.25;84.32;;;;;;;;;;5035226;28;20037;-79
2022/01/03 07:19:35;;;;;;;155.25;78.60;;;;;;;;;;5035538;28;20049;-80
2022/01/03 07:22:20;;;;;;;155.85;80.45;;;;;;;;;;5035618;28;20370;-80
2022/01/03 07:25:10;;;;;;;139.15;74.25;;;;;;;;;;5034116;28;20045;-79
2022/01/03 07:27:56;;;;;;;135.60;69.28;;;;;;;;;;5034379;28;20045;-80
2022/01/03 07:30:42;;;;;;;128.10;68.57;;;;;;;;;;5035257;28;20045;-78
2022/01/03 07:33:27;;;;;;;118.30;58.33;;;;;;;;;;5034723;28;20041;-79
2022/01/03 07:36:13;;;;;;;145.10;76.68;;;;;;;;;;5033984;28;20049;-79
2022/01/03 07:38:58;;;;;;;156.27;80.78;;;;;;;;;;5034606;28;20045;-79
2022/01/03 07:41:44;;;;;;;207.65;107.78;;;;;;;;;;5034704;28;20050;-79
2022/01/03 07:44:30;;;;;;;202.98;112.15;;;;;;;;;;5034136;28;20050;-78
2022/01/03 07:47:16;;;;;;;204.23;109.40;;;;;;;;;;5050684;28;20049;-77
2022/01/03 07:50:02;;;;;;;190.88;104.72;;;;;;;;;;5040700;28;20056;-79
2022/01/03 07:52:48;;;;;;;198.32;114.53;;;;;;;;;;5034528;28;20397;-79
2022/01/03 07:55:34;;;;;;;193.57;110.00;;;;;;;;;;5034674;28;20490;-79
2022/01/03 07:58:20;;;;;;;214.50;118.18;;;;;;;;;;5034721;28;20038;-78
2022/01/03 08:01:06;;;;;;;182.50;103.75;;;;;;;;;;5014771;28;20394;-78
2022/01/03 08:03:51;;;;;;;187.05;100.18;;;;;;;;;;5014886;28;20046;-80
2022/01/03 08:06:37;;;;;;;195.77;107.68;;;;;;;;;;5014700;28;20126;-80
2022/01/03 08:09:22;;;;;;;167.13;96.75;;;;;;;;;;5014554;28;20053;-79
2022/01/03 08:12:08;;;;;;;167.20;94.72;;;;;;;;;;4999945;28;20053;-79
2022/01/03 08:14:54;;;;;;;156.57;88.93;;;;;;;;;;5014507;28;20046;-78
2022/01/03 08:17:39;;;;;;;168.27;94.13;;;;;;;;;;5014925;28;20049;-79
2022/01/03 08:20:26;;;;;;;196.55;103.88;;;;;;;;;;5013950;28;20045;-79
2022/01/03 08:23:11;;;;;;;189.05;104.78;;;;;;;;;;5014473;28;20490;-80
2022/01/03 08:25:57;;;;;;;242.77;132.00;;;;;;;;;;5014063;28;20034;-78
2022/01/03 08:28:43;;;;;;;177.50;98.85;;;;;;;;;;5014338;28;20045;-78
2022/01/03 08:31:29;;;;;;;185.13;107.72;;;;;;;;;;5006118;28;20050;-79
2022/01/03 08:34:15;;;;;;;168.02;97.43;;;;;;;;;;5006378;28;20046;-78
2022/01/03 08:37:00;;;;;;;172.45;101.22;;;;;;;;;;5014144;28;20050;-78
2022/01/03 08:39:46;;;;;;;181.68;104.95;;;;;;;;;;5014381;28;20046;-80
2022/01/03 08:42:32;;;;;;;207.57;112.70;;;;;;;;;;5013543;28;20403;-79
2022/01/03 08:45:19;;;;;;;196.27;113.55;;;;;;;;;;5013842;28;20034;-79
2022/01/03 08:48:05;;;;;;;204.88;110.40;;;;;;;;;;5013919;28;20038;-79
2022/01/03 08:50:50;;;;;;;184.63;102.50;;;;;;;;;;5013476;28;20046;-79
2022/01/03 08:53:36;;;;;;;144.40;73.15;;;;;;;;;;5013990;28;20045;-79
2022/01/03 08:56:21;;;;;;;119.15;56.97;;;;;;;;;;5013853;28;20041;-78
2022/01/03 08:59:10;;;;;;;113.53;61.17;;;;;;;;;;5019719;28;20045;-80
2022/01/03 09:01:55;;;;;;;104.38;49.90;;;;;;;;;;5033511;28;20037;-79
2022/01/03 09:04:44;;;;;;;85.25;43.40;;;;;;;;;;5033051;28;20041;-78
2022/01/03 09:07:29;;;;;;;78.32;45.78;;;;;;;;;;5033499;28;20522;-77
2022/01/03 09:10:15;;;;;;;85.43;45.60;;;;;;;;;;5033444;28;20049;-77
2022/01/03 09:13:02;;;;;;;88.57;47.80;;;;;;;;;;5033124;28;20041;-77
2022/01/03 09:15:49;;;;;;;62.80;38.30;;;;;;;;;;5033294;28;20046;-77
2022/01/03 09:18:36;;;;;;;73.75;37.90;;;;;;;;;;5039181;28;20057;-77
2022/01/03 09:21:22;;;;;;;71.10;34.45;;;;;;;;;;5033539;28;20041;-77
2022/01/03 09:30:08;;;;;;;76.47;41.45;;;;;;;;;;5024621;28;20514;-77
2022/01/03 09:32:54;;;;;;;79.15;40.50;;;;;;;;;;5033039;28;20049;-77
2022/01/03 09:35:41;;;;;;;80.85;45.33;;;;;;;;;;5033348;28;20045;-77
2022/01/03 09:38:27;;;;;;;91.88;52.05;;;;;;;;;;5033317;28;20390;-76
2022/01/03 09:41:14;;;;;;;108.93;58.78;;;;;;;;;;5033262;28;20053;-77
2022/01/03 09:44:08;;;;;;;107.70;59.40;;;;;;;;;;5033035;28;20037;-76
2022/01/03 09:46:56;;;;;;;106.22;56.70;;;;;;;;;;5032741;28;20058;-77
2022/01/03 09:49:42;;;;;;;91.28;49.83;;;;;;;;;;5032776;28;20045;-77
2022/01/03 09:52:30;;;;;;;91.63;50.08;;;;;;;;;;5032589;28;20041;-77
2022/01/03 09:55:21;;;;;;;95.68;50.47;;;;;;;;;;5039711;28;20054;-76
2022/01/03 09:58:06;;;;;;;83.68;47.92;;;;;;;;;;5033593;28;20045;-76
2022/01/03 10:00:54;;;;;;;85.13;45.53;;;;;;;;;;5016828;28;20050;-76
2022/01/03 10:03:46;;;;;;;79.68;44.78;;;;;;;;;;5023354;28;20050;-76
2022/01/03 10:06:32;;;;;;;97.50;55.75;;;;;;;;;;5017046;28;20403;-79
2022/01/03 10:09:19;;;;;;;86.72;48.70;;;;;;;;;;5033813;28;20042;-76
2022/01/03 10:12:08;;;;;;;90.88;49.17;;;;;;;;;;5017227;28;20478;-77
2022/01/03 10:14:53;;;;;;;92.90;52.13;;;;;;;;;;5016805;28;20050;-80
2022/01/03 10:17:41;;;;;;;83.53;52.30;;;;;;;;;;5017138;28;20359;-77
2022/01/03 10:20:29;;;;;;;79.78;46.50;;;;;;;;;;5024179;28;20046;-76
2022/01/03 10:23:16;;;;;;;79.05;43.90;;;;;;;;;;5002036;28;20046;-78
2022/01/03 10:26:21;;;;;;;81.75;47.22;;;;;;;;;;5016234;28;20050;-76
2022/01/03 10:29:26;;;;;;;87.20;48.38;;;;;;;;;;5016297;28;20056;-76
2022/01/03 10:32:12;;;;;;;85.18;47.40;;;;;;;;;;5016601;28;20046;-77
2022/01/03 10:35:13;;;;;;;88.10;48.65;;;;;;;;;;5002361;28;20046;-76
2022/01/03 10:37:58;;;;;;;87.18;48.85;;;;;;;;;;5016513;28;20411;-77
2022/01/03 10:40:43;;;;;;;74.00;41.58;;;;;;;;;;5016345;28;20069;-76
2022/01/03 10:43:33;;;;;;;79.15;44.20;;;;;;;;;;5015850;28;20487;-76
2022/01/03 10:46:34;;;;;;;79.90;45.47;;;;;;;;;;5016050;28;20049;-77
2022/01/03 10:49:20;;;;;;;81.45;46.50;;;;;;;;;;5015780;28;20050;-77
2022/01/03 10:52:17;;;;;;;77.70;43.90;;;;;;;;;;5015310;28;20038;-77
2022/01/03 10:55:35;;;;;;;77.07;44.83;;;;;;;;;;5015964;28;20391;-77
2022/01/03 10:58:32;;;;;;;142.77;83.38;;;;;;;;;;5022892;28;20394;-77
2022/01/03 11:01:32;;;;;;;124.63;70.10;;;;;;;;;;5015596;28;20050;-77
2022/01/03 11:04:33;;;;;;;119.35;65.60;;;;;;;;;;5022261;28;20046;-76
2022/01/03 11:13:23;;;;;;;115.03;60.50;;;;;;;;;;5014968;28;20046;-75
2022/01/03 11:16:10;;;;;;;84.68;44.92;;;;;;;;;;5015684;28;20041;-77
2022/01/03 11:18:56;;;;;;;81.25;44.47;;;;;;;;;;5021760;28;20046;-77
2022/01/03 11:21:44;;;;;;;84.35;44.58;;;;;;;;;;5014856;28;20514;-77
2022/01/03 11:24:29;;;;;;;79.07;43.92;;;;;;;;;;5014265;28;20038;-78
2022/01/03 11:27:16;;;;;;;81.63;44.33;;;;;;;;;;5014483;28;20053;-77
2022/01/03 11:30:01;;;;;;;73.10;39.75;;;;;;;;;;5020903;28;20395;-78
2022/01/03 11:32:49;;;;;;;72.10;38.25;;;;;;;;;;5014976;28;20390;-78
2022/01/03 11:35:35;;;;;;;60.55;35.17;;;;;;;;;;5015122;28;20049;-78
2022/01/03 11:38:23;;;;;;;82.93;44.33;;;;;;;;;;5015365;28;20479;-78
2022/01/03 11:41:09;;;;;;;73.03;40.40;;;;;;;;;;5015291;28;20049;-76
2022/01/03 11:43:56;;;;;;;66.07;41.75;;;;;;;;;;5015251;28;20058;-77
2022/01/03 11:46:43;;;;;;;72.30;41.95;;;;;;;;;;5014612;28;20046;-77
2022/01/03 11:49:29;;;;;;;67.32;39.72;;;;;;;;;;5014594;28;20483;-77
2022/01/03 11:52:15;;;;;;;69.03;38.90;;;;;;;;;;4999870;28;20050;-76
2022/01/03 11:55:02;;;;;;;73.45;38.50;;;;;;;;;;5014137;28;20041;-77
2022/01/03 11:58:20;;;;;;;65.45;38.83;;;;;;;;;;5014737;28;20046;-77
2022/01/03 12:04:15;;;;;;;84.15;44.97;;;;;;;;;;5014710;28;20046;-77
2022/01/03 12:07:08;;;;;;;77.53;43.63;;;;;;;;;;5014219;28;20042;-77
2022/01/03 12:10:10;;;;;;;78.68;49.00;;;;;;;;;;5014577;28;20049;-77
2022/01/03 12:12:59;;;;;;;65.40;36.67;;;;;;;;;;5014450;28;20046;-76
2022/01/03 12:15:48;;;;;;;57.38;35.70;;;;;;;;;;5014005;28;20407;-76
2022/01/03 12:18:33;;;;;;;60.63;33.85;;;;;;;;;;5014477;28;20042;-76
2022/01/03 12:21:50;;;;;;;42.65;25.05;;;;;;;;;;5019992;28;20423;-76
2022/01/03 12:25:02;;;;;;;49.30;28.50;;;;;;;;;;5013550;28;20045;-77
2022/01/03 12:27:54;;;;;;;40.75;26.80;;;;;;;;;;5025556;28;20049;-77
2022/01/03 12:30:56;;;;;;;55.33;33.25;;;;;;;;;;5033546;28;20041;-77
2022/01/03 12:33:41;;;;;;;60.22;36.00;;;;;;;;;;5013756;28;20046;-78
2022/01/03 12:36:27;;;;;;;72.80;38.78;;;;;;;;;;5014417;28;20050;-78
2022/01/03 12:39:13;;;;;;;58.83;34.50;;;;;;;;;;5013865;28;20042;-78
2022/01/03 12:41:59;;;;;;;71.60;36.63;;;;;;;;;;5014137;28;20041;-78
2022/01/03 12:44:46;;;;;;;84.70;42.58;;;;;;;;;;5013508;28;20070;-77
2022/01/03 12:47:37;;;;;;;78.50;44.22;;;;;;;;;;5013306;28;20045;-76
2022/01/03 12:50:29;;;;;;;70.50;38.58;;;;;;;;;;5013580;28;20050;-78
2022/01/03 12:53:23;;;;;;;69.82;39.00;;;;;;;;;;5013834;28;20041;-78
2022/01/03 12:56:13;;;;;;;;;;;;;;;;;;5014690;28;20403;-78
2022/01/03 12:59:08;;;;;;;38.38;21.95;;;;;;;;;;5018407;28;19917;-79
2022/01/03 13:02:27;;;;;;;44.95;25.70;;;;;;;;;;5018863;28;20395;-79
2022/01/03 13:05:13;;;;;;;51.75;27.35;;;;;;;;;;5033865;28;20045;-78
2022/01/03 13:07:59;;;;;;;47.15;26.98;;;;;;;;;;5032892;28;20041;-77
2022/01/03 13:10:44;;;;;;;53.30;29.38;;;;;;;;;;5033263;28;20046;-79
2022/01/03 13:13:30;;;;;;;88.53;40.40;;;;;;;;;;5032841;28;20049;-78
2022/01/03 13:16:19;;;;;;;66.72;29.35;;;;;;;;;;5033360;28;20494;-78
2022/01/03 13:19:33;;;;;;;53.33;28.45;;;;;;;;;;5033072;28;20386;-78
2022/01/03 13:22:19;;;;;;;51.88;29.70;;;;;;;;;;5040010;28;20053;-76
2022/01/03 13:25:05;;;;;;;55.67;30.30;;;;;;;;;;5033385;28;20049;-77
2022/01/03 13:27:51;;;;;;;41.40;25.25;;;;;;;;;;5033423;28;20049;-77
2022/01/03 13:30:36;;;;;;;44.42;24.92;;;;;;;;;;5033567;28;20045;-77
2022/01/03 13:33:24;;;;;;;47.08;22.95;;;;;;;;;;5042402;28;20478;-77
2022/01/03 13:36:18;;;;;;;55.10;28.83;;;;;;;;;;5037338;28;20049;-77
2022/01/03 13:39:09;;;;;;;54.50;29.90;;;;;;;;;;5037227;28;20502;-78
2022/01/03 13:42:05;;;;;;;64.20;34.83;;;;;;;;;;5037020;28;20041;-76
2022/01/03 13:50:35;;;;;;;107.53;47.08;;;;;;;;;;5017182;28;20050;-76
2022/01/03 13:53:21;;;;;;;67.90;38.17;;;;;;;;;;5017473;28;20472;-77
2022/01/03 13:56:07;;;;;;;89.30;45.28;;;;;;;;;;5016853;28;20515;-77
2022/01/03 13:58:53;;;;;;;101.85;50.80;;;;;;;;;;5017060;28;20046;-76
2022/01/03 14:01:39;;;;;;;80.35;40.80;;;;;;;;;;5016565;28;20050;-77
2022/01/03 14:04:24;;;;;;;56.80;31.27;;;;;;;;;;5016596;28;20041;-77
2022/01/03 14:07:15;;;;;;;93.68;43.85;;;;;;;;;;5016418;28;20042;-78
2022/01/03 14:10:01;;;;;;;74.22;37.58;;;;;;;;;;5016495;28;20045;-77
2022/01/03 14:12:52;;;;;;;56.30;29.58;;;;;;;;;;5016527;28;20046;-78
2022/01/03 14:15:58;;;;;;;81.22;41.55;;;;;;;;;;5016739;28;20045;-78
2022/01/03 14:18:49;;;;;;;69.55;37.20;;;;;;;;;;5016782;28;20046;-76
2022/01/03 14:21:35;;;;;;;96.32;40.97;;;;;;;;;;5023288;28;20041;-77
2022/01/03 14:24:23;;;;;;;89.72;42.00;;;;;;;;;;5016890;28;20046;-77
2022/01/03 14:27:08;;;;;;;94.60;44.78;;;;;;;;;;5002130;28;20054;-74
2022/01/03 14:29:56;;;;;;;85.70;42.40;;;;;;;;;;5016146;28;20038;-76
2022/01/03 14:32:43;;;;;;;234.65;118.15;;;;;;;;;;5016861;28;20049;-76
2022/01/03 14:35:37;;;;;;;155.70;75.22;;;;;;;;;;5016353;28;20377;-77
2022/01/03 14:38:28;;;;;;;203.63;99.22;;;;;;;;;;5016408;28;20042;-78
2022/01/03 14:41:21;;;;;;;192.88;95.78;;;;;;;;;;5023132;28;20042;-77
2022/01/03 14:44:08;;;;;;;211.93;122.67;;;;;;;;;;5027028;28;20042;-79
2022/01/03 14:47:08;;;;;;;175.63;91.95;;;;;;;;;;5027493;28;20480;-78
2022/01/03 14:50:02;;;;;;;363.00;200.88;;;;;;;;;;4998619;23;20046;-77
2022/01/03 14:52:47;;;;;;;242.77;136.68;;;;;;;;;;4996604;28;20046;-76
2022/01/03 14:55:37;;;;;;;228.45;130.68;;;;;;;;;;4996532;28;20050;-76
2022/01/03 14:58:23;;;;;;;241.18;136.38;;;;;;;;;;4996199;28;20050;-76
2022/01/03 15:01:08;;;;;;;257.55;129.23;;;;;;;;;;4996571;28;20480;-77
2022/01/03 15:03:54;;;;;;;232.57;119.45;;;;;;;;;;5001623;28;20365;-77
2022/01/03 15:06:39;;;;;;;228.27;120.45;;;;;;;;;;4996216;28;20042;-77
2022/01/03 15:09:24;;;;;;;231.32;117.85;;;;;;;;;;4988134;28;20050;-76
2022/01/03 15:12:11;;;;;;;211.40;115.10;;;;;;;;;;5002708;28;20043;-76
2022/01/03 15:14:57;;;;;;;232.20;130.35;;;;;;;;;;5002232;28;20039;-76
2022/01/03 15:17:43;;;;;;;217.88;117.63;;;;;;;;;;4996146;28;20050;-76
2022/01/03 15:20:30;;;;;;;186.50;98.38;;;;;;;;;;4996268;28;20042;-76
2022/01/03 15:23:17;;;;;;;162.77;91.32;;;;;;;;;;5016668;23;20045;-76
2022/01/03 15:26:02;;;;;;;155.27;84.63;;;;;;;;;;5014753;28;20038;-77
2022/01/03 15:28:48;;;;;;;157.80;87.55;;;;;;;;;;5015395;28;20050;-77
2022/01/03 15:31:34;;;;;;;150.27;82.03;;;;;;;;;;5014952;28;20053;-75
2022/01/03 15:34:20;;;;;;;130.73;68.28;;;;;;;;;;5015289;28;20050;-76
2022/01/03 15:37:07;;;;;;;130.98;72.30;;;;;;;;;;5015700;28;20049;-76
2022/01/03 15:39:51;;;;;;;162.05;76.38;;;;;;;;;;5014970;28;20049;-77
2022/01/03 15:42:37;;;;;;;161.48;76.95;;;;;;;;;;5016107;28;20041;-75
2022/01/03 15:45:22;;;;;;;192.68;95.70;;;;;;;;;;5014681;28;20033;-77
2022/01/03 15:48:09;;;;;;;186.48;87.18;;;;;;;;;;5015016;28;20050;-77
2022/01/03 15:50:54;;;;;;;213.90;98.55;;;;;;;;;;5015606;28;20050;-77
2022/01/03 15:53:41;;;;;;;233.23;108.32;;;;;;;;;;5015675;28;20050;-77
2022/01/03 15:56:26;;;;;;;310.98;151.13;;;;;;;;;;5015287;28;20045;-76
2022/01/03 15:59:15;;;;;;;290.65;142.60;;;;;;;;;;5014286;28;20042;-76
2022/01/03 16:02:01;;;;;;;234.27;111.18;;;;;;;;;;5013255;28;20049;-76
2022/01/03 16:04:46;;;;;;;248.98;127.80;;;;;;;;;;5014590;28;20042;-76
2022/01/03 16:07:32;;;;;;;291.58;149.30;;;;;;;;;;5014398;28;20041;-77
2022/01/03 16:10:17;;;;;;;223.23;118.63;;;;;;;;;;5014701;28;20041;-82
2022/01/03 16:13:03;;;;;;;185.98;95.97;;;;;;;;;;5014125;28;20077;-82
2022/01/03 16:15:48;;;;;;;189.93;98.53;;;;;;;;;;5013998;28;20050;-82
2022/01/03 16:18:35;;;;;;;195.38;106.22;;;;;;;;;;5014487;28;20050;-82
2022/01/03 16:21:20;;;;;;;184.77;100.82;;;;;;;;;;5014340;28;20046;-82
2022/01/03 16:24:06;;;;;;;190.00;101.35;;;;;;;;;;5013113;28;20038;-82
2022/01/03 16:26:52;;;;;;;219.93;120.85;;;;;;;;;;5014446;28;20045;-82
2022/01/03 16:29:40;;;;;;;186.93;101.47;;;;;;;;;;5014187;28;20046;-82
2022/01/03 16:32:25;;;;;;;201.35;104.90;;;;;;;;;;5014608;28;20046;-83